Time;durP1;ratioP1;P1;durP2;ratioP2;P2;SDS_P1;SDS_P2;PMS_P1;PMS_P2;Temp;Humidity;BMP_temperature;BMP_pressure;BME280_temperature;BME280_humidity;BME280_pressure;Samples;Min_cycle;Max_cycle;Signal;HPM_P1;HPM_P2
2021/12/28 00:00:32;;;;;;;12.17;5.50;;;;;;;-5.40;77.68;100181.67;1755749;79;20915;-52
2021/12/28 00:02:59;;;;;;;9.10;4.77;;;;;;;-5.40;77.60;100173.38;1754253;80;20879;-51
2021/12/28 00:05:26;;;;;;;8.80;4.77;;;;;;;-5.38;77.57;100176.94;1754531;79;20979;-51
2021/12/28 00:10:55;;;;;;;13.27;6.57;;;;;;;-5.29;77.62;100163.55;1789957;78;25023;-52
2021/12/28 00:13:22;;;;;;;13.03;6.40;;;;;;;-5.36;77.52;100166.48;1767213;79;21026;-52
2021/12/28 00:18:21;;;;;;;11.27;5.83;;;;;;;-5.40;77.55;100169.45;1774282;78;21328;-52
2021/12/28 00:20:49;;;;;;;12.93;8.20;;;;;;;-5.41;77.69;100166.36;1710038;81;21440;-52
2021/12/28 00:23:19;;;;;;;12.50;7.47;;;;;;;-5.43;77.75;100160.19;1742798;80;20902;-51
2021/12/28 00:25:49;;;;;;;11.83;7.33;;;;;;;-5.42;77.84;100159.34;1706375;82;20962;-51
2021/12/28 00:28:16;;;;;;;9.77;6.33;;;;;;;-5.40;77.84;100160.27;1723137;81;21740;-51
2021/12/28 00:30:43;;;;;;;14.70;7.07;;;;;;;-5.38;77.86;100161.19;1725566;81;20966;-52
2021/12/28 00:33:09;;;;;;;16.87;8.50;;;;;;;-5.37;77.86;100164.70;1723313;81;20933;-50
2021/12/28 00:35:38;;;;;;;11.37;6.37;;;;;;;-5.35;77.91;100152.48;1724176;81;21369;-51
2021/12/28 00:38:04;;;;;;;11.73;6.43;;;;;;;-5.29;77.92;100154.37;1710110;81;21114;-51
2021/12/28 00:40:32;;;;;;;15.07;7.63;;;;;;;-5.29;77.88;100150.44;1733603;80;21138;-51
2021/12/28 00:42:59;;;;;;;11.73;6.33;;;;;;;-5.24;77.87;100155.34;1736030;81;21133;-51
2021/12/28 00:45:25;;;;;;;13.40;7.43;;;;;;;-5.24;77.79;100150.09;1711086;82;21089;-52
2021/12/28 00:47:51;;;;;;;14.50;6.83;;;;;;;-5.26;77.83;100152.67;1707489;82;21125;-51
2021/12/28 00:50:18;;;;;;;11.03;6.33;;;;;;;-5.25;77.86;100151.83;1737954;80;21082;-52
2021/12/28 00:52:46;;;;;;;14.53;9.07;;;;;;;-5.21;77.90;100152.79;1713023;81;20995;-52
2021/12/28 00:55:14;;;;;;;14.40;7.70;;;;;;;-5.18;77.96;100147.58;1733515;81;21085;-52
2021/12/28 00:57:41;;;;;;;13.77;8.00;;;;;;;-5.15;77.89;100148.55;1707230;81;21456;-51
2021/12/28 01:00:12;;;;;;;15.53;7.77;;;;;;;-5.13;77.88;100142.91;1701387;82;21173;-51
2021/12/28 01:02:38;;;;;;;13.13;6.97;;;;;;;-5.14;77.77;100138.94;1665849;84;21053;-51
2021/12/28 01:05:06;;;;;;;12.80;6.83;;;;;;;-5.11;77.83;100139.02;1687769;82;22779;-50
2021/12/28 01:07:33;;;;;;;13.40;7.63;;;;;;;-5.09;77.78;100143.84;1693529;82;21581;-51
2021/12/28 01:10:00;;;;;;;14.93;8.10;;;;;;;-5.08;77.70;100139.94;1685772;82;21090;-51
2021/12/28 01:12:26;;;;;;;14.67;8.70;;;;;;;-5.06;77.68;100136.03;1673789;84;21151;-51
2021/12/28 01:14:53;;;;;;;24.93;10.50;;;;;;;-5.04;77.53;100143.09;1674802;84;21464;-51
2021/12/28 01:17:19;;;;;;;21.13;10.07;;;;;;;-5.04;77.52;100142.21;1676543;83;21123;-51
2021/12/28 01:19:46;;;;;;;17.27;9.67;;;;;;;-5.04;77.48;100142.21;1723112;81;21616;-51
2021/12/28 01:22:12;;;;;;;24.63;10.23;;;;;;;-5.03;77.43;100144.88;1726368;81;21125;-52
2021/12/28 01:24:39;;;;;;;18.30;8.07;;;;;;;-5.02;77.31;100141.83;1720249;81;21089;-51
2021/12/28 01:27:05;;;;;;;16.20;7.97;;;;;;;-5.01;77.32;100143.56;1688404;83;21164;-52
2021/12/28 01:29:32;;;;;;;15.13;7.57;;;;;;;-5.01;77.28;100140.94;1687670;83;21148;-51
2021/12/28 01:31:59;;;;;;;12.83;7.97;;;;;;;-5.00;77.23;100144.91;1721628;81;21113;-52
2021/12/28 01:34:25;;;;;;;12.37;6.23;;;;;;;-5.00;77.16;100137.03;1726696;81;20958;-51
2021/12/28 01:36:52;;;;;;;13.83;6.40;;;;;;;-4.98;77.13;100131.83;1722395;81;21101;-51
2021/12/28 01:39:18;;;;;;;14.77;7.67;;;;;;;-4.98;77.13;100131.40;1725382;81;21144;-51
2021/12/28 01:41:44;;;;;;;14.97;6.67;;;;;;;-4.93;77.06;100129.31;1725707;81;21036;-51
2021/12/28 01:44:11;;;;;;;14.23;6.60;;;;;;;-4.91;76.96;100135.02;1723005;81;21447;-51
2021/12/28 01:46:38;;;;;;;17.10;7.17;;;;;;;-4.93;76.75;100126.22;1723688;81;21118;-51
2021/12/28 01:49:06;;;;;;;13.33;6.07;;;;;;;-4.96;76.69;100132.32;1724593;81;21036;-52
2021/12/28 01:51:33;;;;;;;11.97;6.00;;;;;;;-4.97;76.68;100130.55;1727489;81;21759;-51
2021/12/28 01:54:00;;;;;;;12.83;5.90;;;;;;;-4.99;76.62;100123.48;1720999;81;21646;-52
2021/12/28 01:56:31;;;;;;;9.90;5.47;;;;;;;-4.99;76.68;100128.73;1723474;81;21640;-51
2021/12/28 01:58:57;;;;;;;12.13;5.90;;;;;;;-4.99;76.57;100127.42;1723218;81;21337;-52
2021/12/28 02:01:24;;;;;;;15.17;7.47;;;;;;;-5.01;76.58;100127.39;1722124;81;21439;-50
2021/12/28 02:03:51;;;;;;;14.40;6.70;;;;;;;-4.99;76.55;100133.98;1725034;81;21355;-50
2021/12/28 02:06:18;;;;;;;14.40;6.57;;;;;;;-5.01;76.49;100135.27;1726816;81;22119;-51
2021/12/28 02:08:44;;;;;;;12.47;6.37;;;;;;;-5.02;76.53;100133.48;1728971;82;20879;-50
2021/12/28 02:11:11;;;;;;;11.80;6.30;;;;;;;-5.02;76.54;100134.80;1733012;81;20911;-50
2021/12/28 02:13:38;;;;;;;14.23;6.23;;;;;;;-5.02;76.53;100121.67;1731105;81;21483;-50
2021/12/28 02:16:05;;;;;;;17.47;7.20;;;;;;;-5.00;76.51;100130.90;1734359;81;21592;-50
2021/12/28 02:18:32;;;;;;;14.57;7.97;;;;;;;-5.01;76.46;100127.39;1728984;81;21574;-49
2021/12/28 02:20:59;;;;;;;16.77;8.50;;;;;;;-5.02;76.49;100136.57;1729011;81;21840;-51
2021/12/28 02:23:26;;;;;;;15.70;7.13;;;;;;;-5.01;76.52;100131.75;1729398;81;21526;-51
2021/12/28 02:25:52;;;;;;;15.33;7.77;;;;;;;-4.99;76.51;100129.63;1729087;81;21488;-49
2021/12/28 02:28:19;;;;;;;13.63;7.87;;;;;;;-4.96;76.48;100124.87;1728230;81;21534;-49
2021/12/28 02:30:48;;;;;;;16.07;8.90;;;;;;;-4.97;76.39;100119.16;1726060;81;22249;-49
2021/12/28 02:33:14;;;;;;;14.40;7.80;;;;;;;-5.00;76.28;100117.34;1731723;81;21104;-49
2021/12/28 02:35:41;;;;;;;16.10;8.63;;;;;;;-5.02;76.40;100106.38;1733578;81;20907;-50
2021/12/28 02:38:09;;;;;;;14.20;8.17;;;;;;;-5.03;76.41;100095.42;1733034;81;20922;-49
2021/12/28 02:40:35;;;;;;;15.83;8.33;;;;;;;-5.03;76.38;100089.75;1735127;81;20994;-50
2021/12/28 02:43:03;;;;;;;13.37;7.40;;;;;;;-5.02;76.35;100101.13;1735189;81;21097;-49
2021/12/28 02:45:32;;;;;;;13.87;7.53;;;;;;;-5.05;76.38;100098.02;1732031;81;20958;-49
2021/12/28 02:47:59;;;;;;;16.37;7.83;;;;;;;-5.06;76.41;100093.61;1732785;81;21366;-49
2021/12/28 02:50:35;;;;;;;17.33;8.73;;;;;;;-5.06;76.38;100085.73;1733219;81;20923;-49
2021/12/28 02:53:02;;;;;;;17.00;8.37;;;;;;;-5.05;76.43;100090.56;1667193;85;20927;-49
2021/12/28 02:55:30;;;;;;;16.10;9.27;;;;;;;-5.06;76.38;100092.30;1668828;84;22361;-50
2021/12/28 02:58:01;;;;;;;16.70;9.73;;;;;;;-5.08;76.39;100083.50;1670153;85;20963;-49
2021/12/28 03:00:49;;;;;;;16.33;9.07;;;;;;;-5.08;76.45;100090.06;1666241;83;20879;-49
2021/12/28 03:03:20;;;;;;;18.40;8.33;;;;;;;-5.08;76.37;100091.37;1669993;85;21799;-49
2021/12/28 03:05:49;;;;;;;14.43;8.10;;;;;;;-5.12;76.38;100077.75;1667954;83;20952;-49
2021/12/28 03:08:17;;;;;;;17.17;9.67;;;;;;;-5.11;76.52;100086.09;1700200;83;21087;-49
2021/12/28 03:10:44;;;;;;;14.97;7.53;;;;;;;-5.08;76.53;100087.87;1690331;83;20946;-49
2021/12/28 03:13:17;;;;;;;19.03;8.37;;;;;;;-5.07;76.44;100085.27;1723165;81;20977;-49
2021/12/28 03:15:43;;;;;;;16.03;8.53;;;;;;;-5.03;76.39;100086.23;1722797;81;20984;-49
2021/12/28 03:18:10;;;;;;;11.77;6.57;;;;;;;-5.04;76.23;100085.77;1725793;81;20970;-49
2021/12/28 03:20:36;;;;;;;20.63;9.90;;;;;;;-5.05;76.29;100084.00;1720404;81;22298;-50
2021/12/28 03:23:02;;;;;;;12.97;7.97;;;;;;;-5.07;76.24;100089.22;1717741;81;21064;-49
2021/12/28 03:25:31;;;;;;;18.33;8.63;;;;;;;-5.06;76.31;100081.80;1717068;81;21047;-49
2021/12/28 03:27:59;;;;;;;14.30;7.50;;;;;;;-5.04;76.29;100075.27;1723901;81;20978;-49
2021/12/28 03:30:26;;;;;;;19.33;8.23;;;;;;;-5.03;76.22;100079.67;1718940;81;21109;-49
2021/12/28 03:32:52;;;;;;;15.20;7.70;;;;;;;-5.03;76.14;100081.88;1720185;81;21125;-49
2021/12/28 03:35:19;;;;;;;13.77;7.30;;;;;;;-5.02;76.14;100076.20;1719363;81;21102;-49
2021/12/28 03:37:46;;;;;;;14.43;7.40;;;;;;;-5.02;76.07;100071.80;1721531;81;21050;-50
2021/12/28 03:40:14;;;;;;;14.90;8.17;;;;;;;-5.02;76.02;100085.38;1717269;81;21553;-49
2021/12/28 03:42:40;;;;;;;15.13;7.40;;;;;;;-5.02;75.97;100070.48;1721170;81;20939;-49
2021/12/28 03:45:08;;;;;;;12.70;7.37;;;;;;;-5.03;75.86;100067.44;1723107;81;21442;-50
2021/12/28 03:47:35;;;;;;;18.63;9.97;;;;;;;-5.03;75.91;100058.25;1721914;81;21012;-49
2021/12/28 03:50:02;;;;;;;15.00;7.97;;;;;;;-5.03;75.87;100062.61;1720570;81;21100;-49
2021/12/28 03:52:30;;;;;;;16.37;8.33;;;;;;;-5.03;75.87;100065.23;1716983;81;22501;-50
2021/12/28 03:54:56;;;;;;;17.30;8.30;;;;;;;-5.03;75.85;100073.11;1719463;81;22232;-49
2021/12/28 03:57:22;;;;;;;11.27;7.00;;;;;;;-5.02;75.84;100075.73;1719818;81;21077;-49
2021/12/28 03:59:48;;;;;;;12.20;6.50;;;;;;;-5.02;75.78;100066.55;1719774;81;21106;-50
2021/12/28 04:02:15;;;;;;;13.37;6.87;;;;;;;-5.01;75.74;100070.95;1719634;81;21054;-49
2021/12/28 04:04:41;;;;;;;12.13;6.67;;;;;;;-5.01;75.70;100068.32;1718765;81;21093;-49
2021/12/28 04:07:09;;;;;;;13.50;7.20;;;;;;;-4.99;75.69;100073.18;1718095;81;21044;-50
2021/12/28 04:09:57;;;;;;;13.67;7.33;;;;;;;-4.96;75.67;100072.36;1724046;82;21128;-49
2021/12/28 04:12:13;;;;;;;14.47;7.67;;;;;;;-4.92;75.58;100070.66;1739972;80;21918;-50
2021/12/28 04:14:40;;;;;;;12.13;5.83;;;;;;;-4.92;75.45;100070.23;1745097;80;21542;-50
2021/12/28 04:17:07;;;;;;;15.33;8.23;;;;;;;-4.90;75.41;100063.28;1743070;80;22600;-50
2021/12/28 04:19:33;;;;;;;17.13;7.67;;;;;;;-4.90;75.30;100055.41;1741177;80;21070;-50
2021/12/28 04:21:59;;;;;;;12.90;7.83;;;;;;;-4.90;75.26;100053.20;1740392;80;21060;-50
2021/12/28 04:24:26;;;;;;;16.43;8.43;;;;;;;-4.90;75.20;100047.52;1741129;80;21124;-50
2021/12/28 04:26:52;;;;;;;14.93;7.13;;;;;;;-4.87;75.17;100058.52;1740823;80;21142;-50
2021/12/28 04:29:20;;;;;;;17.97;7.93;;;;;;;-4.87;75.09;100052.84;1741341;80;22486;-50
2021/12/28 04:31:48;;;;;;;17.27;8.43;;;;;;;-4.88;74.97;100060.26;1745639;80;21444;-50
2021/12/28 04:34:14;;;;;;;21.80;9.20;;;;;;;-4.90;74.97;100051.89;1743224;80;21075;-50
2021/12/28 04:36:41;;;;;;;18.30;9.60;;;;;;;-4.91;74.92;100049.69;1742024;80;21026;-51
2021/12/28 04:39:07;;;;;;;20.13;8.93;;;;;;;-4.89;74.87;100048.41;1740670;80;21070;-50
2021/12/28 04:41:36;;;;;;;18.07;9.63;;;;;;;-4.92;74.63;100045.72;1739208;80;21009;-51
2021/12/28 04:44:02;;;;;;;15.97;8.77;;;;;;;-4.96;74.58;100047.42;1742037;80;21454;-51
2021/12/28 04:46:29;;;;;;;15.07;8.10;;;;;;;-5.02;74.53;100059.98;1741142;80;21432;-50
2021/12/28 04:48:55;;;;;;;20.63;9.93;;;;;;;-5.05;74.69;100069.14;1742074;80;21673;-50
2021/12/28 04:51:22;;;;;;;20.47;10.87;;;;;;;-5.05;74.70;100071.77;1742432;80;22390;-50
2021/12/28 04:53:52;;;;;;;20.83;10.50;;;;;;;-5.05;74.71;100077.44;1741779;80;21037;-50
2021/12/28 04:56:19;;;;;;;20.27;9.73;;;;;;;-5.04;74.61;100072.22;1708001;82;21121;-51
2021/12/28 04:58:45;;;;;;;18.17;9.53;;;;;;;-5.04;74.52;100070.91;1707924;82;21077;-50
2021/12/28 05:01:11;;;;;;;18.40;9.93;;;;;;;-5.05;74.52;100064.31;1708957;83;21086;-50
2021/12/28 05:03:38;;;;;;;20.70;10.80;;;;;;;-5.06;74.54;100072.61;1691438;83;21120;-50
2021/12/28 05:06:04;;;;;;;23.83;9.53;;;;;;;-5.05;74.50;100064.31;1688478;83;21379;-50
2021/12/28 05:08:31;;;;;;;19.80;9.40;;;;;;;-5.03;74.42;100063.92;1687137;83;21038;-50
2021/12/28 05:10:57;;;;;;;23.70;10.33;;;;;;;-5.02;74.38;100063.07;1684612;83;22369;-50
2021/12/28 05:13:24;;;;;;;19.87;9.57;;;;;;;-5.02;74.34;100067.86;1678695;83;21619;-50
2021/12/28 05:15:52;;;;;;;21.33;8.93;;;;;;;-5.02;74.25;100068.32;1678794;83;21122;-50
2021/12/28 05:18:19;;;;;;;22.90;9.10;;;;;;;-5.03;74.19;100071.80;1728497;81;20943;-50
2021/12/28 05:20:46;;;;;;;18.73;8.63;;;;;;;-5.04;74.14;100067.40;1727437;81;21067;-50
2021/12/28 05:23:13;;;;;;;16.23;8.73;;;;;;;-5.06;73.96;100054.23;1729807;81;22231;-50
2021/12/28 05:25:39;;;;;;;17.10;8.53;;;;;;;-5.07;73.97;100054.20;1731231;81;21403;-50
2021/12/28 05:28:06;;;;;;;20.67;8.90;;;;;;;-5.11;73.66;100060.27;1727055;81;21099;-50
2021/12/28 05:30:33;;;;;;;17.13;7.73;;;;;;;-5.21;73.88;100061.83;1724535;81;21113;-51
2021/12/28 05:33:00;;;;;;;18.47;9.13;;;;;;;-5.22;73.94;100060.05;1729982;81;20907;-51
2021/12/28 05:35:26;;;;;;;15.80;8.10;;;;;;;-5.23;73.88;100056.97;1731907;81;22384;-50
2021/12/28 05:37:53;;;;;;;22.33;10.63;;;;;;;-5.25;73.84;100065.23;1728710;81;21361;-51
2021/12/28 05:40:19;;;;;;;16.33;8.53;;;;;;;-5.28;73.85;100062.56;1730973;81;20950;-50
2021/12/28 05:42:46;;;;;;;18.63;10.03;;;;;;;-5.27;73.84;100062.99;1730235;81;21013;-50
2021/12/28 05:45:12;;;;;;;20.53;9.77;;;;;;;-5.28;73.83;100051.19;1730633;80;20970;-50
2021/12/28 05:47:39;;;;;;;21.00;11.10;;;;;;;-5.30;73.74;100053.77;1732420;81;21107;-50
2021/12/28 05:50:06;;;;;;;15.30;8.57;;;;;;;-5.34;73.81;100058.48;1728984;81;20947;-50
2021/12/28 05:52:33;;;;;;;13.77;8.33;;;;;;;-5.34;73.80;100060.69;1730972;81;21494;-50
2021/12/28 05:54:59;;;;;;;16.43;9.07;;;;;;;-5.34;73.75;100068.55;1731432;82;21049;-51
2021/12/28 05:57:25;;;;;;;19.00;9.50;;;;;;;-5.36;73.74;100066.78;1730950;80;20911;-49
2021/12/28 05:59:52;;;;;;;16.10;9.07;;;;;;;-5.36;73.79;100074.19;1729893;80;22252;-50
2021/12/28 06:02:18;;;;;;;19.03;9.30;;;;;;;-5.36;73.67;100073.34;1732868;80;20919;-50
2021/12/28 06:04:45;;;;;;;16.13;8.27;;;;;;;-5.36;73.75;100086.00;1731399;81;20946;-50
2021/12/28 06:07:11;;;;;;;19.50;8.70;;;;;;;-5.36;73.74;100084.69;1731995;81;21388;-50
2021/12/28 06:09:37;;;;;;;17.63;8.80;;;;;;;-5.36;73.72;100080.75;1730084;81;21393;-50
2021/12/28 06:12:06;;;;;;;21.90;11.60;;;;;;;-5.34;73.77;100078.16;1730887;81;21420;-50
2021/12/28 06:14:34;;;;;;;26.57;12.00;;;;;;;-5.29;73.69;100079.59;1732956;81;20879;-51
2021/12/28 06:17:00;;;;;;;29.80;13.60;;;;;;;-5.28;73.62;100079.62;1728940;80;20978;-50
2021/12/28 06:19:26;;;;;;;21.43;10.97;;;;;;;-5.26;73.62;100084.45;1730926;81;21073;-50
2021/12/28 06:21:52;;;;;;;27.87;13.90;;;;;;;-5.23;73.53;100080.59;1727690;80;21424;-50
2021/12/28 06:24:19;;;;;;;22.07;11.57;;;;;;;-5.24;73.43;100083.17;1664988;84;21125;-51
2021/12/28 06:26:45;;;;;;;19.23;9.53;;;;;;;-5.24;73.30;100079.23;1679554;83;21524;-50
2021/12/28 06:29:15;;;;;;;18.47;9.07;;;;;;;-5.31;73.12;100079.97;1683494;83;21422;-50
2021/12/28 06:31:41;;;;;;;21.27;10.53;;;;;;;-5.37;73.17;100080.32;1683104;83;21053;-49
2021/12/28 06:34:07;;;;;;;22.40;10.57;;;;;;;-5.40;73.25;100085.49;1681003;83;21078;-49
2021/12/28 06:36:33;;;;;;;19.10;10.43;;;;;;;-5.40;73.28;100089.42;1676968;83;21763;-49
2021/12/28 06:39:00;;;;;;;20.23;11.80;;;;;;;-5.37;73.27;100083.37;1682066;83;21073;-49
2021/12/28 06:41:26;;;;;;;22.03;10.73;;;;;;;-5.39;73.21;100084.64;1682099;83;21101;-49
2021/12/28 06:43:52;;;;;;;23.23;11.90;;;;;;;-5.37;73.24;100079.44;1681038;83;21157;-49
2021/12/28 06:46:19;;;;;;;21.47;10.97;;;;;;;-5.37;73.19;100083.37;1679153;83;21095;-50
2021/12/28 06:48:45;;;;;;;18.30;10.10;;;;;;;-5.36;73.13;100085.14;1729766;82;23331;-49
2021/12/28 06:51:11;;;;;;;22.40;10.83;;;;;;;-5.34;73.15;100084.72;1724048;81;21109;-49
2021/12/28 06:53:38;;;;;;;21.43;11.33;;;;;;;-5.33;73.03;100077.31;1726703;81;21274;-49
2021/12/28 06:56:05;;;;;;;21.37;10.47;;;;;;;-5.32;73.02;100081.71;1726512;81;21057;-49
2021/12/28 06:58:33;;;;;;;20.37;10.47;;;;;;;-5.32;72.94;100089.58;1726195;81;21354;-49
2021/12/28 07:00:59;;;;;;;23.77;11.63;;;;;;;-5.32;72.91;100093.94;1723691;81;21114;-49
2021/12/28 07:03:25;;;;;;;20.63;10.07;;;;;;;-5.31;72.94;100091.78;1718759;81;21094;-49
2021/12/28 07:05:52;;;;;;;19.73;10.37;;;;;;;-5.29;72.87;100094.02;1727505;80;21070;-49
2021/12/28 07:08:18;;;;;;;19.30;11.17;;;;;;;-5.32;72.67;100084.76;1722196;81;21082;-49
2021/12/28 07:10:45;;;;;;;23.67;10.93;;;;;;;-5.34;72.79;100075.11;1728022;81;21088;-49
2021/12/28 07:13:12;;;;;;;23.73;11.73;;;;;;;-5.35;72.76;100079.90;1730392;82;21006;-49
2021/12/28 07:15:39;;;;;;;24.00;11.37;;;;;;;-5.39;72.73;100088.58;1731874;80;21037;-49
2021/12/28 07:18:05;;;;;;;19.93;9.90;;;;;;;-5.40;72.79;100080.25;1726035;81;22349;-49
2021/12/28 07:20:32;;;;;;;19.83;9.57;;;;;;;-5.40;72.76;100072.38;1730245;81;21054;-49
2021/12/28 07:22:58;;;;;;;22.27;10.57;;;;;;;-5.39;72.63;100078.08;1728028;81;21059;-49
2021/12/28 07:25:24;;;;;;;25.57;10.53;;;;;;;-5.39;72.55;100073.27;1729695;81;21074;-49
2021/12/28 07:27:51;;;;;;;21.33;10.70;;;;;;;-5.40;72.43;100080.25;1733854;81;20879;-49
2021/12/28 07:30:17;;;;;;;21.40;10.23;;;;;;;-5.40;72.49;100059.69;1726002;81;21358;-49
2021/12/28 07:32:44;;;;;;;25.37;10.70;;;;;;;-5.40;72.23;100057.06;1729377;80;21034;-49
2021/12/28 07:35:11;;;;;;;20.13;10.47;;;;;;;-5.46;72.28;100056.52;1726756;81;21037;-49
2021/12/28 07:37:38;;;;;;;21.50;10.00;;;;;;;-5.50;72.41;100049.42;1726784;81;21088;-49
2021/12/28 07:40:06;;;;;;;20.20;9.63;;;;;;;-5.53;72.25;100049.81;1728126;81;21066;-49
2021/12/28 07:42:35;;;;;;;23.27;11.07;;;;;;;-5.53;72.48;100055.05;1725491;81;21387;-50
2021/12/28 07:45:04;;;;;;;24.63;11.30;;;;;;;-5.52;72.24;100054.17;1729229;81;21584;-50
2021/12/28 07:47:31;;;;;;;26.20;12.87;;;;;;;-5.54;72.06;100048.92;1728807;81;21081;-49
2021/12/28 07:49:57;;;;;;;22.80;10.47;;;;;;;-5.57;72.18;100043.60;1729107;81;21155;-49
2021/12/28 07:52:23;;;;;;;19.30;9.87;;;;;;;-5.55;72.18;100048.88;1729847;81;21031;-49
2021/12/28 07:54:50;;;;;;;16.80;9.17;;;;;;;-5.54;72.22;100051.55;1728853;81;21025;-49
2021/12/28 07:57:16;;;;;;;21.13;10.20;;;;;;;-5.51;72.10;100055.52;1727340;81;22661;-50
2021/12/28 07:59:42;;;;;;;23.50;11.23;;;;;;;-5.48;72.13;100054.28;1725800;80;21507;-49
2021/12/28 08:02:10;;;;;;;24.63;11.67;;;;;;;-5.43;72.05;100053.94;1726186;81;23187;-49
2021/12/28 08:04:37;;;;;;;20.50;10.43;;;;;;;-5.39;72.13;100057.09;1719941;80;22916;-49
2021/12/28 08:07:05;;;;;;;21.43;10.70;;;;;;;-5.31;72.15;100051.11;1726957;81;21491;-50
2021/12/28 08:09:32;;;;;;;20.13;11.60;;;;;;;-5.24;72.01;100044.70;1722535;81;21105;-49
2021/12/28 08:11:59;;;;;;;24.53;11.63;;;;;;;-5.20;71.45;100045.66;1725239;81;21089;-50
2021/12/28 08:14:25;;;;;;;23.93;12.53;;;;;;;-5.22;71.44;100036.44;1728518;81;22350;-50
2021/12/28 08:16:52;;;;;;;30.37;12.43;;;;;;;-5.22;71.46;100035.55;1726274;81;21386;-50
2021/12/28 08:19:18;;;;;;;28.97;12.30;;;;;;;-5.20;71.34;100033.42;1727404;81;22516;-50
2021/12/28 08:21:46;;;;;;;21.63;10.30;;;;;;;-5.15;71.21;100034.80;1731193;80;21519;-50
2021/12/28 08:24:12;;;;;;;23.23;10.07;;;;;;;-5.11;70.64;100034.02;1731278;81;20911;-50
2021/12/28 08:26:38;;;;;;;22.80;10.00;;;;;;;-5.22;70.21;100018.06;1727075;81;21088;-50
2021/12/28 08:29:05;;;;;;;20.83;11.03;;;;;;;-5.28;70.43;100017.08;1725756;81;21113;-49
2021/12/28 08:31:34;;;;;;;21.30;9.80;;;;;;;-5.28;70.52;100027.14;1727276;81;21485;-51
2021/12/28 08:34:01;;;;;;;26.97;11.80;;;;;;;-5.23;70.38;100020.66;1726967;81;20954;-50
2021/12/28 08:36:27;;;;;;;17.90;9.40;;;;;;;-5.21;70.24;100025.09;1727847;81;21605;-50
2021/12/28 08:38:53;;;;;;;16.83;9.27;;;;;;;-5.17;70.05;100011.58;1726387;81;21186;-50
2021/12/28 08:41:21;;;;;;;17.87;9.90;;;;;;;-5.14;69.85;100015.16;1723909;82;21065;-53
2021/12/28 08:43:49;;;;;;;24.30;10.23;;;;;;;-5.13;69.70;100015.61;1731534;80;21026;-50
2021/12/28 08:46:15;;;;;;;15.73;9.77;;;;;;;-5.14;69.34;100020.83;1730457;81;21010;-50
2021/12/28 08:48:44;;;;;;;18.07;9.57;;;;;;;-5.20;69.34;100017.67;1730606;81;20887;-51
2021/12/28 08:51:12;;;;;;;22.40;9.60;;;;;;;-5.19;69.55;100018.56;1731074;80;21273;-50
2021/12/28 08:53:38;;;;;;;22.90;10.23;;;;;;;-5.27;68.96;100003.95;1728832;81;20995;-50
2021/12/28 08:56:04;;;;;;;20.60;8.90;;;;;;;-5.37;69.13;100000.30;1727466;81;20939;-51
2021/12/28 08:58:30;;;;;;;18.00;9.47;;;;;;;-5.36;69.43;100001.19;1730615;82;20980;-51
2021/12/28 09:00:57;;;;;;;18.17;9.90;;;;;;;-5.31;69.08;99999.52;1733148;81;21730;-51
2021/12/28 09:03:23;;;;;;;22.27;9.67;;;;;;;-5.33;68.72;100002.53;1731103;81;21342;-50
2021/12/28 09:05:50;;;;;;;16.63;8.80;;;;;;;-5.32;68.84;99994.23;1730542;82;21443;-51
2021/12/28 09:08:18;;;;;;;16.23;8.97;;;;;;;-5.27;68.97;99992.14;1731350;80;20915;-50
2021/12/28 09:10:46;;;;;;;16.27;8.23;;;;;;;-5.24;68.79;99993.95;1730617;82;21926;-50
2021/12/28 09:13:14;;;;;;;20.50;9.83;;;;;;;-5.18;68.26;99984.87;1725193;81;20938;-50
2021/12/28 09:15:42;;;;;;;22.63;9.87;;;;;;;-5.15;68.39;99979.69;1722217;81;21116;-51
2021/12/28 09:18:08;;;;;;;18.03;10.13;;;;;;;-5.11;68.35;99978.48;1723921;81;21074;-51
2021/12/28 09:20:34;;;;;;;21.30;10.50;;;;;;;-5.08;67.94;99965.38;1720029;82;21341;-51
2021/12/28 09:23:01;;;;;;;24.67;10.50;;;;;;;-5.09;67.78;99966.23;1719929;81;21596;-50
2021/12/28 09:25:27;;;;;;;18.83;9.37;;;;;;;-5.14;67.60;99957.84;1721620;82;21618;-50
2021/12/28 09:27:54;;;;;;;17.27;7.97;;;;;;;-5.14;67.87;99960.47;1718427;81;21624;-49
2021/12/28 09:30:20;;;;;;;21.60;8.67;;;;;;;-5.10;67.76;99959.22;1721246;81;22156;-49
2021/12/28 09:32:48;;;;;;;19.83;10.33;;;;;;;-5.08;67.19;99957.94;1720231;81;21097;-50
2021/12/28 09:35:14;;;;;;;18.30;8.77;;;;;;;-5.11;66.27;99961.42;1719893;82;21644;-50
2021/12/28 09:37:40;;;;;;;18.73;8.93;;;;;;;-5.14;66.76;99956.53;1719907;81;21094;-50
2021/12/28 09:40:09;;;;;;;21.67;10.23;;;;;;;-5.14;66.66;99953.48;1720835;81;21138;-50
2021/12/28 09:42:36;;;;;;;22.50;8.60;;;;;;;-5.12;66.45;99950.89;1720312;81;21066;-50
2021/12/28 09:45:05;;;;;;;22.07;9.70;;;;;;;-5.12;66.66;99946.52;1721706;82;21078;-49
2021/12/28 09:47:32;;;;;;;18.60;8.00;;;;;;;-5.07;65.77;99943.96;1721262;81;21559;-50
2021/12/28 09:49:58;;;;;;;20.03;9.67;;;;;;;-5.06;65.80;99943.99;1719422;81;21062;-50
2021/12/28 09:52:25;;;;;;;18.37;9.80;;;;;;;-5.03;65.95;99945.80;1718651;81;21109;-49
2021/12/28 09:54:51;;;;;;;17.37;9.53;;;;;;;-4.99;65.98;99931.84;1721767;81;21046;-50
2021/12/28 09:57:18;;;;;;;16.13;8.27;;;;;;;-4.93;66.03;99933.71;1719883;81;21248;-50
2021/12/28 09:59:46;;;;;;;23.80;9.90;;;;;;;-4.88;65.66;99930.72;1719305;81;21062;-50
2021/12/28 10:02:12;;;;;;;19.80;10.17;;;;;;;-4.85;65.62;99938.66;1722902;82;21105;-50
2021/12/28 10:05:04;;;;;;;20.57;10.10;;;;;;;-4.78;65.51;99936.58;1717774;81;21146;-49
2021/12/28 10:07:34;;;;;;;16.23;8.77;;;;;;;-4.74;65.11;99936.63;1717170;81;21046;-49
2021/12/28 10:10:00;;;;;;;22.27;9.63;;;;;;;-4.70;65.18;99935.84;1720191;82;21089;-50
2021/12/28 10:12:34;;;;;;;17.03;9.13;;;;;;;-4.66;65.06;99933.69;1719317;81;21531;-50
2021/12/28 10:15:13;;;;;;;21.23;10.00;;;;;;;-4.62;64.64;99934.64;1722830;81;22172;-50
2021/12/28 10:17:41;;;;;;;19.30;9.27;;;;;;;-4.58;64.31;99932.06;1716466;81;21737;-50
2021/12/28 10:20:14;;;;;;;25.13;10.67;;;;;;;-4.55;63.89;99940.44;1723165;82;21050;-50
2021/12/28 10:22:46;;;;;;;17.37;10.07;;;;;;;-4.57;63.83;99932.95;1721553;82;21121;-50
2021/12/28 10:25:26;;;;;;;20.53;10.13;;;;;;;-4.58;63.76;99921.56;1724767;81;20893;-49
2021/12/28 10:27:57;;;;;;;17.87;9.30;;;;;;;-4.58;63.24;99920.24;1687446;83;21058;-50
2021/12/28 10:30:36;;;;;;;17.43;8.93;;;;;;;-4.62;63.36;99915.83;1723857;81;22381;-49
2021/12/28 10:33:12;;;;;;;20.23;9.50;;;;;;;-4.64;63.03;99914.91;1721479;81;21437;-50
2021/12/28 10:35:41;;;;;;;18.10;9.23;;;;;;;-4.66;62.92;99910.48;1719575;82;21144;-50
2021/12/28 10:38:15;;;;;;;18.20;9.80;;;;;;;-4.68;62.83;99907.83;1722361;81;22653;-49
2021/12/28 10:41:00;;;;;;;18.43;9.20;;;;;;;-4.73;62.63;99912.57;1663693;84;21040;-50
2021/12/28 10:43:33;;;;;;;19.13;8.87;;;;;;;-4.76;62.59;99909.88;1722252;81;21143;-50
2021/12/28 10:46:03;;;;;;;16.37;8.20;;;;;;;-4.80;62.44;99907.66;1718499;81;21014;-49
2021/12/28 10:48:38;;;;;;;17.33;7.83;;;;;;;-4.80;62.76;99908.09;1716553;81;22054;-52
2021/12/28 10:51:12;;;;;;;23.53;10.27;;;;;;;-4.77;62.58;99898.53;1720846;82;21027;-49
2021/12/28 10:56:32;;;;;;;14.40;7.67;;;;;;;-4.85;62.46;99897.53;1720655;81;21071;-49
2021/12/28 10:58:58;;;;;;;17.03;9.20;;;;;;;-4.84;62.32;99892.70;1725364;81;20951;-49
2021/12/28 11:01:32;;;;;;;19.30;9.30;;;;;;;-4.83;62.10;99890.53;1724144;81;20966;-50
2021/12/28 11:04:09;;;;;;;12.82;7.25;;;;;;;-4.93;61.56;99893.87;1725533;81;21031;-50
2021/12/28 11:06:44;;;;;;;18.43;8.37;;;;;;;-4.99;61.90;99898.61;1722532;81;21078;-50
2021/12/28 11:09:15;;;;;;;18.73;8.37;;;;;;;-5.03;61.49;99896.81;1721544;82;21137;-50
2021/12/28 11:11:42;;;;;;;16.63;8.13;;;;;;;-5.13;61.59;99901.45;1721861;81;20939;-50
2021/12/28 11:14:15;;;;;;;16.27;7.50;;;;;;;-5.14;61.97;99898.79;1720583;81;21113;-49
2021/12/28 11:16:42;;;;;;;15.67;7.40;;;;;;;-5.08;62.08;99898.88;1723464;81;21273;-49
2021/12/28 11:19:10;;;;;;;17.70;7.83;;;;;;;-4.97;61.62;99901.27;1723952;81;20988;-49
2021/12/28 11:21:41;;;;;;;19.10;8.07;;;;;;;-4.91;61.45;99897.41;1725737;81;21045;-50
2021/12/28 11:24:15;;;;;;;17.07;8.53;;;;;;;-4.89;61.19;99890.45;1720710;81;20872;-50
2021/12/28 11:26:47;;;;;;;20.50;8.90;;;;;;;-4.85;61.24;99892.70;1724977;81;20955;-49